EA1JBL
43.12.28N 005.47.42W
IN73CE aprs.fi
zuletzt gehoert:
2021-06-16T10:33:13Z
zuerst gehoert:
2020-02-10T15:03:02Z

APRS Mieres [IN73CE], 0 Stunde(n), EA1JBL [12:54:03, 0s].
EA1JBL 43.12.28N 005.47.42WIN73CE 0.330km 313°NW10:33:13ZMMDVM DVMega 435.3000/435.3000 CC1
EA1HWA 43.12.00N 005.47.40WIN73CE 0.370km 213°SSW10:33:11ZMMDVM MMDVM HS Hat 433.4500/433.4500 CC1
EB1DGC 43.12.60N 005.45.59WIN73CF 2.370km 70°ENE10:30:52ZMMDVM MMDVM HS Hat 433.4500/433.4500 CC1
EA1IMW 43.14.36N 005.46.93WIN73CF 4.085km N10:33:26ZGRUPO RADIO GALENA (GRG) 433.4500/433.4500 CC1
EA1RCG 43.09.45N 005.49.78WIN73CD 6.078km 214°SW10:33:38ZGRUPO RADIO GALENA (GRG) 433.4500/433.4500 CC1
ED1ZAD 43.07.90N 005.38.52WIN73ED 14.184km 124°SE10:44:18ZED1ZAD-3 APRS Digi/Igate(3ED1ZAD-3)
EA1L 43.20.38N 005.51.13WIN73BI 16.113km 341°NNW10:34:23ZWind 016°/003kn, Böen bis 005kn, Temp 26.67c, Regen 0.0mm, letzte 24h 0.0mm, seit 0h 0.0mm, Baro 1008.4h, Hum: 62%(3EA1L-13)
ea1l@ure.es V=11.7V,T=??.?C(2EA1L)
EA1AQK 43.16.49N 005.35.99WIN73EG 17.180km 62°ENE10:30:50ZMMDVM MMDVM HS Hat 439.8500/439.8500 CC1
33D00 43.21.63N 005.51.13WIN73BI 18.296km 343°NNW10:01:44Z33-D-00 Protección Civil REMER / Delegación del Gobierno en Asturias
EA1YR 43.22.09N 005.51.86WIN73BI 19.429km 341°NNW10:33:32ZMMDVM DVS 434.3500/434.3500 CC1
LEHU 43.22.63N 005.49.57WIN73CJ 19.638km 351°N10:30:03ZHelipuerto del HUCA: LEAS 161000Z VRB02KT 7000 SCT003 19/17 Q1010 NOSIG=
ED1ZAU 43.23.04N 005.52.75WIN73BJ 21.471km 340°NNW10:34:13ZRD625 438.5000/430.9000 CC1
EA1FLQ 43.22.00N 005.36.35WIN73EI 23.404km 39°NE10:33:06ZMMDVM DVMega 430.9750/430.9750 CC1
EA1IN 43.25.16N 005.47.43WIN73CK 24.075km 359°N10:33:38ZMMDVM MMDVM HS Hat 434.7000/434.7000 CC1
LEMR 43.25.83N 005.49.60WIN73CK 25.514km 353°N10:30:04ZAerodromo de la Morgal: LEAS 161000Z VRB02KT 7000 SCT003 19/17 Q1010 NOSIG=
LEGM 43.26.15N 005.49.84WIN73CK 26.160km 352°N10:30:03ZHelipuerto de La Morgal: LEAS 161000Z VRB02KT 7000 SCT003 19/17 Q1010 NOSIG=
ED1ZAS 43.27.52N 005.40.17WIN73DL 30.019km 18°NNE10:34:08ZRD985 438.2250/430.6250 CC1
ED1ZAE 43.27.99N 005.40.54WIN73DL 30.677km 17°NNE10:45:34Z2m Voice 145.5875 -0.600 Mhz(3ED1ZAE-C)
WIDE3-3 ESAS3-3 IN73DL WWW.EA1URG.ORG(2ED1ZAE-3)
ED1ZAY 43.29.47N 005.56.54WIN73AL 34.438km 339°NNW10:34:12ZRD625 438.3000/430.7000 CC1
EB1GEM 43.30.00N 005.36.07WIN73EM 36.332km 24°NNE10:43:26ZWX3in1Plus2.0 U=13.3V,T=??.?C/??.?F(3EB1GEM-3)
EA1DZR 43.31.47N 005.40.00WIN73DM 37.072km 15°NNE10:33:45ZMMDVM DVMega 431.1000/431.1000 CC1
EA1IEJ 43.31.81N 005.40.64WIN73DM 37.488km 14°NNE10:31:27ZMMDVM MMDVM HS Hat 438.8500/438.8500 CC6
EB1TK 43.32.22N 005.42.32WIN73DM 37.763km 10°N10:45:17ZWind 039°/006kn, Böen bis 009kn, Temp 21.11c, Regen 0.0mm, letzte 24h 0.0mm, seit 0h 0.0mm, Baro 1013.3h, Hum: 83%(3EB1TK-13)
LEEL 43.32.98N 005.41.71WIN73DN 39.277km 11°N10:30:05ZHelipuerto de El Musel: LEAS 161000Z VRB02KT 7000 SCT003 19/17 Q1010 NOSIG=
EA1AHA 43.32.72N 005.54.38WIN73BN 39.291km 346°NNW10:51:11ZWind 045°/011kn, Böen bis 013kn, Temp 20.56c, Regen 0.0mm, letzte 24h 0.0mm, seit 0h 0.0mm, Baro 1012.0h, Hum: 78%(3EA1AHA-13)
EA1FHR 43.28.72N 005.26.41WIN73GL 41.579km 42°NE10:31:49ZMMDVM MMDVM HS Hat 439.1500/439.1500 CC1
EA1HWD 43.28.96N 005.26.30WIN73GL 42.016km 42°NE10:32:54Z144.575FM Local frecuency VHF. 434.2500/434.2500 CC1
EA1JAY 43.29.33N 005.26.78WIN73GL 42.112km 41°NE10:45:11Z434.525MHz Nodo TETRA DMO(3EA1JAY-4)
EA1JAY(2EA1JAY-2)
EA1HJA 43.29.33N 005.26.75WIN73GL 42.130km 41°NE10:53:31ZEA1HJA@URE.ES
EA1HJA@QSL.NET(2EA1HJA-12)
EA1HJA@URE.ES(2EA1HJA-2)
]=(2EA1HJA-9)
EA1DHE 43.33.98N 005.58.57WIN73AN 43.212km 339°NNW10:33:33ZMMDVM DVS 434.3500/434.3500 CC1

aprs.pl 5.0.011w DL3EL © 2006-2021 [465355]